Time;durP1;ratioP1;P1;durP2;ratioP2;P2;SDS_P1;SDS_P2;PMS_P1;PMS_P2;Temp;Humidity;BMP_temperature;BMP_pressure;BME280_temperature;BME280_humidity;BME280_pressure;Samples;Min_cycle;Max_cycle;Signal;HPM_P1;HPM_P2
2023/01/13 00:00:08;;;;;;;;;;;;;;;;;;7375437;19;1881;-73
2023/01/13 00:02:39;;;;;;;;;;;;;;;;;;7375627;19;1862;-73
2023/01/13 00:05:08;;;;;;;;;;;;;;;;;;7371063;19;744;-71
2023/01/13 00:07:37;;;;;;;;;;;;;;;;;;7373752;19;1650;-72
2023/01/13 00:10:05;;;;;;;;;;;;;;;;;;7372412;19;2141;-71
2023/01/13 00:12:33;;;;;;;;;;;;;;;;;;7372201;19;1589;-72
2023/01/13 00:15:02;;;;;;;;;;;;;;;;;;7370289;19;816;-70
2023/01/13 00:17:30;;;;;;;;;;;;;;;;;;7374256;19;1636;-72
2023/01/13 00:19:58;;;;;;;;;;;;;;;;;;7372927;19;1838;-72
2023/01/13 00:22:26;;;;;;;;;;;;;;;;;;7371078;19;1884;-70
2023/01/13 00:24:57;;;;;;;;;;;;;;;;;;7371885;19;834;-71
2023/01/13 00:27:25;;;;;;;;;;;;;;;;;;7373973;19;1760;-70
2023/01/13 00:29:53;;;;;;;;;;;;;;;;;;7373282;19;1644;-71
2023/01/13 00:32:21;;;;;;;;;;;;;;;;;;7372925;19;1630;-72
2023/01/13 00:34:49;;;;;;;;;;;;;;;;;;7371153;19;819;-73
2023/01/13 00:37:17;;;;;;;;;;;;;;;;;;7369556;19;1840;-72
2023/01/13 00:39:45;;;;;;;;;;;;;;;;;;7369956;19;834;-70
2023/01/13 00:44:54;;;;;;;;;;;;;;;;;;7372345;19;819;-72
2023/01/13 00:47:22;;;;;;;;;;;;;;;;;;7370585;19;858;-71
2023/01/13 00:49:51;;;;;;;;;;;;;;;;;;7369682;19;795;-71
2023/01/13 00:52:19;;;;;;;;;;;;;;;;;;7369724;19;1274;-70
2023/01/13 00:54:47;;;;;;;;;;;;;;;;;;7370604;19;807;-72
2023/01/13 00:57:17;;;;;;;;;;;;;;;;;;7370361;19;826;-71
2023/01/13 00:59:46;;;;;;;;;;;;;;;;;;7367601;19;839;-72
2023/01/13 01:02:15;;;;;;;;;;;;;;;;;;7368087;19;1842;-71
2023/01/13 01:04:43;;;;;;;;;;;;;;;;;;7369416;19;863;-71
2023/01/13 01:07:11;;;;;;;;;;;;;;;;;;7370002;19;799;-72
2023/01/13 01:09:39;;;;;;;;;;;;;;;;;;7372976;19;1629;-72
2023/01/13 01:12:07;;;;;;;;;;;;;;;;;;7367746;19;1255;-72
2023/01/13 01:14:35;;;;;;;;;;;;;;;;;;7369517;19;719;-72
2023/01/13 01:17:04;;;;;;;;;;;;;;;;;;7369259;19;854;-72
2023/01/13 01:19:32;;;;;;;;;;;;;;;;;;7368966;19;788;-72
2023/01/13 01:22:00;;;;;;;;;;;;;;;;;;7365974;19;1854;-71
2023/01/13 01:24:28;;;;;;;;;;;;;;;;;;7369785;19;894;-71
2023/01/13 01:26:56;;;;;;;;;;;;;;;;;;7369130;19;811;-71
2023/01/13 01:29:24;;;;;;;;;;;;;;;;;;7369530;19;1866;-70
2023/01/13 01:31:53;;;;;;;;;;;;;;;;;;7372477;19;1867;-71
2023/01/13 01:34:21;;;;;;;;;;;;;;;;;;7368418;19;799;-72
2023/01/13 01:36:49;;;;;;;;;;;;;;;;;;7370664;19;1646;-71
2023/01/13 01:39:17;;;;;;;;;;;;;;;;;;7368609;19;803;-70
2023/01/13 01:43:57;;;;;;;;;;;;;;;;;;7367120;19;1849;-71
2023/01/13 01:44:31;;;;;;;;;;;;;;;;;;7368198;19;1069;-71
2023/01/13 01:46:59;;;;;;;;;;;;;;;;;;7366963;19;867;-72
2023/01/13 01:49:27;;;;;;;;;;;;;;;;;;7368757;19;871;-72
2023/01/13 01:51:55;;;;;;;;;;;;;;;;;;7368921;19;1337;-72
2023/01/13 01:54:23;;;;;;;;;;;;;;;;;;7368826;19;828;-71
2023/01/13 01:56:52;;;;;;;;;;;;;;;;;;7368096;19;866;-73
2023/01/13 01:59:20;;;;;;;;;;;;;;;;;;7368671;19;791;-72
2023/01/13 02:01:48;;;;;;;;;;;;;;;;;;7368708;19;1866;-71
2023/01/13 02:04:16;;;;;;;;;;;;;;;;;;7368243;19;1651;-73
2023/01/13 02:06:45;;;;;;;;;;;;;;;;;;7373206;19;2170;-72
2023/01/13 02:09:13;;;;;;;;;;;;;;;;;;7371103;19;1506;-72
2023/01/13 02:14:27;;;;;;;;;;;;;;;;;;7366254;19;1056;-73
2023/01/13 02:16:55;;;;;;;;;;;;;;;;;;7368330;19;780;-70
2023/01/13 02:19:24;;;;;;;;;;;;;;;;;;7367659;19;910;-72
2023/01/13 02:21:52;;;;;;;;;;;;;;;;;;7366317;19;1853;-71
2023/01/13 02:27:01;;;;;;;;;;;;;;;;;;7366672;19;860;-72
2023/01/13 02:32:18;;;;;;;;;;;;;;;;;;7362618;19;1738;-71
2023/01/13 02:34:46;;;;;;;;;;;;;;;;;;7372797;19;876;-71
2023/01/13 02:37:14;;;;;;;;;;;;;;;;;;7368656;19;811;-71
2023/01/13 02:39:42;;;;;;;;;;;;;;;;;;7366794;19;839;-71
2023/01/13 02:44:51;;;;;;;;;;;;;;;;;;7368888;19;850;-72
2023/01/13 02:47:19;;;;;;;;;;;;;;;;;;7367698;19;861;-72
2023/01/13 02:49:47;;;;;;;;;;;;;;;;;;7369318;19;1608;-73
2023/01/13 02:52:16;;;;;;;;;;;;;;;;;;7368030;19;1207;-72
2023/01/13 02:54:44;;;;;;;;;;;;;;;;;;7368494;19;871;-72
2023/01/13 02:57:12;;;;;;;;;;;;;;;;;;7368693;19;1926;-71
2023/01/13 02:59:40;;;;;;;;;;;;;;;;;;7373855;19;1925;-71
2023/01/13 03:02:08;;;;;;;;;;;;;;;;;;7367216;19;1862;-72
2023/01/13 03:04:36;;;;;;;;;;;;;;;;;;7394327;19;1594;-72
2023/01/13 03:07:05;;;;;;;;;;;;;;;;;;7387781;19;780;-72
2023/01/13 03:09:33;;;;;;;;;;;;;;;;;;7389346;19;894;-71
2023/01/13 03:12:01;;;;;;;;;;;;;;;;;;7388586;19;1252;-72
2023/01/13 03:14:29;;;;;;;;;;;;;;;;;;7388247;19;795;-72
2023/01/13 03:16:57;;;;;;;;;;;;;;;;;;7388596;19;819;-72
2023/01/13 03:19:25;;;;;;;;;;;;;;;;;;7386710;19;866;-71
2023/01/13 03:21:54;;;;;;;;;;;;;;;;;;7385983;19;1806;-72
2023/01/13 03:24:22;;;;;;;;;;;;;;;;;;7393601;19;879;-72
2023/01/13 03:26:50;;;;;;;;;;;;;;;;;;7392187;19;1193;-72
2023/01/13 03:29:18;;;;;;;;;;;;;;;;;;7391515;19;883;-71
2023/01/13 03:31:46;;;;;;;;;;;;;;;;;;7391549;19;1823;-71
2023/01/13 03:34:15;;;;;;;;;;;;;;;;;;7382810;19;1358;-71
2023/01/13 03:36:43;;;;;;;;;;;;;;;;;;7382891;19;807;-71
2023/01/13 03:39:11;;;;;;;;;;;;;;;;;;7383634;19;1857;-71
2023/01/13 03:41:39;;;;;;;;;;;;;;;;;;7381605;19;1845;-71
2023/01/13 03:46:48;;;;;;;;;;;;;;;;;;7378911;19;856;-71
2023/01/13 03:49:16;;;;;;;;;;;;;;;;;;7375027;19;816;-70
2023/01/13 03:51:44;;;;;;;;;;;;;;;;;;7375307;19;759;-72
2023/01/13 03:54:12;;;;;;;;;;;;;;;;;;7371781;19;1255;-72
2023/01/13 03:56:41;;;;;;;;;;;;;;;;;;7377283;19;850;-70
2023/01/13 03:59:09;;;;;;;;;;;;;;;;;;7374541;19;874;-71
2023/01/13 04:01:37;;;;;;;;;;;;;;;;;;7376750;19;1828;-72
2023/01/13 04:04:05;;;;;;;;;;;;;;;;;;7372453;19;1320;-72
2023/01/13 04:06:33;;;;;;;;;;;;;;;;;;7374642;19;831;-71
2023/01/13 04:09:01;;;;;;;;;;;;;;;;;;7372729;19;788;-71
2023/01/13 04:11:29;;;;;;;;;;;;;;;;;;7377140;19;1875;-70
2023/01/13 04:13:58;;;;;;;;;;;;;;;;;;7373515;19;1271;-71
2023/01/13 04:16:26;;;;;;;;;;;;;;;;;;7372055;19;783;-72
2023/01/13 04:18:54;;;;;;;;;;;;;;;;;;7372904;19;795;-71
2023/01/13 04:21:22;;;;;;;;;;;;;;;;;;7370890;19;1837;-71
2023/01/13 04:23:50;;;;;;;;;;;;;;;;;;7371585;19;1324;-72
2023/01/13 04:26:18;;;;;;;;;;;;;;;;;;7372924;19;822;-72
2023/01/13 04:28:47;;;;;;;;;;;;;;;;;;7373685;19;1731;-71
2023/01/13 04:31:15;;;;;;;;;;;;;;;;;;7372103;19;837;-72
2023/01/13 04:33:43;;;;;;;;;;;;;;;;;;7368640;19;1282;-72
2023/01/13 04:36:11;;;;;;;;;;;;;;;;;;7371352;19;793;-71
2023/01/13 04:38:39;;;;;;;;;;;;;;;;;;7370404;19;1670;-70
2023/01/13 04:41:07;;;;;;;;;;;;;;;;;;7371092;19;810;-71
2023/01/13 04:43:36;;;;;;;;;;;;;;;;;;7366772;19;1838;-70
2023/01/13 04:46:04;;;;;;;;;;;;;;;;;;7371888;19;1727;-71
2023/01/13 04:48:32;;;;;;;;;;;;;;;;;;7369675;19;767;-72
2023/01/13 04:51:00;;;;;;;;;;;;;;;;;;7370151;19;784;-71
2023/01/13 04:53:28;;;;;;;;;;;;;;;;;;7366927;19;1267;-71
2023/01/13 04:55:56;;;;;;;;;;;;;;;;;;7370220;19;834;-71
2023/01/13 04:58:25;;;;;;;;;;;;;;;;;;7370263;19;1927;-72
2023/01/13 05:00:53;;;;;;;;;;;;;;;;;;7369970;19;887;-71
2023/01/13 05:03:23;;;;;;;;;;;;;;;;;;7371233;19;1858;-70
2023/01/13 05:05:51;;;;;;;;;;;;;;;;;;7370821;19;847;-70
2023/01/13 05:08:19;;;;;;;;;;;;;;;;;;7368890;19;818;-71
2023/01/13 05:10:47;;;;;;;;;;;;;;;;;;7370550;19;765;-71
2023/01/13 05:18:36;;;;;;;;;;;;;;;;;;7369636;19;826;-72
2023/01/13 05:25:20;;;;;;;;;;;;;;;;;;7370126;19;815;-71
2023/01/13 05:26:33;;;;;;;;;;;;;;;;;;7372074;19;1705;-71
2023/01/13 05:29:02;;;;;;;;;;;;;;;;;;7368707;19;784;-71
2023/01/13 05:31:30;;;;;;;;;;;;;;;;;;7369851;19;799;-72
2023/01/13 05:33:58;;;;;;;;;;;;;;;;;;7366705;19;1282;-73
2023/01/13 05:36:26;;;;;;;;;;;;;;;;;;7370053;19;1017;-73
2023/01/13 05:38:54;;;;;;;;;;;;;;;;;;7368050;19;804;-72
2023/01/13 05:44:03;;;;;;;;;;;;;;;;;;7365374;19;1320;-72
2023/01/13 05:46:31;;;;;;;;;;;;;;;;;;7365847;19;816;-72
2023/01/13 05:49:00;;;;;;;;;;;;;;;;;;7366726;19;822;-71
2023/01/13 05:51:28;;;;;;;;;;;;;;;;;;7368853;19;897;-73
2023/01/13 05:53:58;;;;;;;;;;;;;;;;;;7365995;19;1279;-73
2023/01/13 05:56:26;;;;;;;;;;;;;;;;;;7371388;19;1643;-72
2023/01/13 05:58:54;;;;;;;;;;;;;;;;;;7366953;19;871;-72
2023/01/13 06:01:22;;;;;;;;;;;;;;;;;;7367777;19;859;-70
2023/01/13 06:03:50;;;;;;;;;;;;;;;;;;7365867;19;1853;-72
2023/01/13 06:06:18;;;;;;;;;;;;;;;;;;7369313;19;848;-71
2023/01/13 06:08:46;;;;;;;;;;;;;;;;;;7368783;19;783;-72
2023/01/13 06:11:15;;;;;;;;;;;;;;;;;;7368472;19;803;-72
2023/01/13 06:13:43;;;;;;;;;;;;;;;;;;7365348;19;1338;-72
2023/01/13 06:16:11;;;;;;;;;;;;;;;;;;7367772;19;799;-72
2023/01/13 06:18:39;;;;;;;;;;;;;;;;;;7368020;19;759;-71
2023/01/13 06:21:07;;;;;;;;;;;;;;;;;;7366349;19;790;-73
2023/01/13 06:23:37;;;;;;;;;;;;;;;;;;7366541;19;1838;-72
2023/01/13 06:26:05;;;;;;;;;;;;;;;;;;7365346;19;820;-72
2023/01/13 06:28:34;;;;;;;;;;;;;;;;;;7367210;19;848;-72
2023/01/13 06:31:02;;;;;;;;;;;;;;;;;;7367980;19;847;-72
2023/01/13 06:33:30;;;;;;;;;;;;;;;;;;7365719;19;1259;-71
2023/01/13 06:35:58;;;;;;;;;;;;;;;;;;7368316;19;1880;-70
2023/01/13 06:38:27;;;;;;;;;;;;;;;;;;7369639;19;1809;-71
2023/01/13 06:40:55;;;;;;;;;;;;;;;;;;7365092;19;859;-71
2023/01/13 06:43:20;;;;;;;;;;;;;;;;;;7364885;19;1825;-70
2023/01/13 06:45:48;;;;;;;;;;;;;;;;;;7366696;19;809;-73
2023/01/13 06:48:17;;;;;;;;;;;;;;;;;;7365165;19;826;-71
2023/01/13 06:50:45;;;;;;;;;;;;;;;;;;7365503;19;835;-71
2023/01/13 06:53:13;;;;;;;;;;;;;;;;;;7365843;19;1286;-70
2023/01/13 06:55:41;;;;;;;;;;;;;;;;;;7367963;19;819;-70
2023/01/13 06:58:09;;;;;;;;;;;;;;;;;;7371022;19;795;-71
2023/01/13 07:00:38;;;;;;;;;;;;;;;;;;7372307;19;847;-73
2023/01/13 07:03:06;;;;;;;;;;;;;;;;;;7373461;19;1857;-71
2023/01/13 07:05:34;;;;;;;;;;;;;;;;;;7374206;19;1674;-71
2023/01/13 07:08:03;;;;;;;;;;;;;;;;;;7372542;19;1020;-73
2023/01/13 07:10:31;;;;;;;;;;;;;;;;;;7375456;19;866;-70
2023/01/13 07:15:40;;;;;;;;;;;;;;;;;;7374378;19;841;-68
2023/01/13 07:18:08;;;;;;;;;;;;;;;;;;7373307;19;905;-70
2023/01/13 07:20:36;;;;;;;;;;;;;;;;;;7374688;19;1857;-71
2023/01/13 07:23:04;;;;;;;;;;;;;;;;;;7371742;19;1835;-73
2023/01/13 07:25:32;;;;;;;;;;;;;;;;;;7373569;19;799;-71
2023/01/13 07:28:00;;;;;;;;;;;;;;;;;;7373962;19;862;-72
2023/01/13 07:30:29;;;;;;;;;;;;;;;;;;7374827;19;2200;-71
2023/01/13 07:32:57;;;;;;;;;;;;;;;;;;7373063;19;1871;-71
2023/01/13 07:35:25;;;;;;;;;;;;;;;;;;7373306;19;783;-73
2023/01/13 07:37:53;;;;;;;;;;;;;;;;;;7373327;19;800;-70
2023/01/13 07:40:21;;;;;;;;;;;;;;;;;;7374714;19;1899;-72
2023/01/13 07:45:30;;;;;;;;;;;;;;;;;;7371223;19;779;-73
2023/01/13 07:47:58;;;;;;;;;;;;;;;;;;7373754;19;2162;-71
2023/01/13 07:50:26;;;;;;;;;;;;;;;;;;7377279;19;1904;-73
2023/01/13 07:52:54;;;;;;;;;;;;;;;;;;7376298;19;1716;-72
2023/01/13 07:55:23;;;;;;;;;;;;;;;;;;7371235;19;839;-72
2023/01/13 07:57:51;;;;;;;;;;;;;;;;;;7372302;19;820;-71
2023/01/13 08:00:19;;;;;;;;;;;;;;;;;;7371160;19;780;-71
2023/01/13 08:02:47;;;;;;;;;;;;;;;;;;7374445;19;1870;-73
2023/01/13 08:05:15;;;;;;;;;;;;;;;;;;7371108;19;882;-72
2023/01/13 08:07:43;;;;;;;;;;;;;;;;;;7371846;19;878;-74
2023/01/13 08:10:12;;;;;;;;;;;;;;;;;;7369474;19;837;-72
2023/01/13 08:15:20;;;;;;;;;;;;;;;;;;7375597;19;1852;-73
2023/01/13 08:17:49;;;;;;;;;;;;;;;;;;7375278;19;1627;-71
2023/01/13 08:20:17;;;;;;;;;;;;;;;;;;7377996;19;1772;-72
2023/01/13 08:22:45;;;;;;;;;;;;;;;;;;7376406;19;1834;-71
2023/01/13 08:25:13;;;;;;;;;;;;;;;;;;7372571;19;831;-73
2023/01/13 08:27:41;;;;;;;;;;;;;;;;;;7370918;19;870;-70
2023/01/13 08:30:10;;;;;;;;;;;;;;;;;;7370202;19;780;-72
2023/01/13 08:32:38;;;;;;;;;;;;;;;;;;7371268;19;1368;-72
2023/01/13 08:35:06;;;;;;;;;;;;;;;;;;7370901;19;793;-72
2023/01/13 08:37:35;;;;;;;;;;;;;;;;;;7370999;19;832;-70
2023/01/13 08:40:03;;;;;;;;;;;;;;;;;;7371127;19;801;-71
2023/01/13 08:42:31;;;;;;;;;;;;;;;;;;7371322;19;1810;-74
2023/01/13 08:44:59;;;;;;;;;;;;;;;;;;7372205;19;735;-72
2023/01/13 08:47:27;;;;;;;;;;;;;;;;;;7373678;19;753;-73
2023/01/13 08:49:55;;;;;;;;;;;;;;;;;;7372235;19;1735;-72
2023/01/13 08:52:24;;;;;;;;;;;;;;;;;;7370756;19;1353;-71
2023/01/13 08:54:52;;;;;;;;;;;;;;;;;;7372743;19;878;-73
2023/01/13 08:57:20;;;;;;;;;;;;;;;;;;7372414;19;815;-73
2023/01/13 08:59:49;;;;;;;;;;;;;;;;;;7370737;19;827;-70
2023/01/13 09:02:17;;;;;;;;;;;;;;;;;;7372408;19;1282;-68
2023/01/13 09:04:45;;;;;;;;;;;;;;;;;;7367140;19;1847;-71
2023/01/13 09:07:13;;;;;;;;;;;;;;;;;;7370923;19;854;-72
2023/01/13 09:09:41;;;;;;;;;;;;;;;;;;7368067;19;864;-72
2023/01/13 09:14:50;;;;;;;;;;;;;;;;;;7370748;19;856;-74
2023/01/13 09:17:18;;;;;;;;;;;;;;;;;;7370436;19;1605;-72
2023/01/13 09:19:46;;;;;;;;;;;;;;;;;;7369649;19;866;-72
2023/01/13 09:22:14;;;;;;;;;;;;;;;;;;7369222;19;1337;-73
2023/01/13 09:24:43;;;;;;;;;;;;;;;;;;7367743;19;1842;-72
2023/01/13 09:27:11;;;;;;;;;;;;;;;;;;7370063;19;983;-73
2023/01/13 09:29:39;;;;;;;;;;;;;;;;;;7368622;19;795;-73
2023/01/13 09:32:07;;;;;;;;;;;;;;;;;;7372031;19;1838;-72
2023/01/13 09:37:16;;;;;;;;;;;;;;;;;;7369750;19;790;-72
2023/01/13 09:39:44;;;;;;;;;;;;;;;;;;7368521;19;864;-71
2023/01/13 09:44:54;;;;;;;;;;;;;;;;;;7364776;19;1838;-72
2023/01/13 09:47:22;;;;;;;;;;;;;;;;;;7369153;19;931;-71
2023/01/13 09:49:50;;;;;;;;;;;;;;;;;;7371347;19;1919;-72
2023/01/13 09:52:18;;;;;;;;;;;;;;;;;;7368295;19;1345;-72
2023/01/13 09:54:46;;;;;;;;;;;;;;;;;;7369456;19;988;-71
2023/01/13 09:57:14;;;;;;;;;;;;;;;;;;7368909;19;812;-73
2023/01/13 09:59:43;;;;;;;;;;;;;;;;;;7367833;19;960;-72
2023/01/13 10:02:11;;;;;;;;;;;;;;;;;;7368698;19;1278;-72
2023/01/13 10:04:39;;;;;;;;;;;;;;;;;;7367091;19;1848;-73
2023/01/13 10:07:07;;;;;;;;;;;;;;;;;;7367319;19;877;-71
2023/01/13 10:09:35;;;;;;;;;;;;;;;;;;7367346;19;852;-71
2023/01/13 10:14:44;;;;;;;;;;;;;;;;;;7368507;19;700;-71
2023/01/13 10:17:12;;;;;;;;;;;;;;;;;;7369982;19;870;-69
2023/01/13 10:19:41;;;;;;;;;;;;;;;;;;7366789;19;867;-69
2023/01/13 10:22:09;;;;;;;;;;;;;;;;;;7368632;19;1275;-69
2023/01/13 10:24:37;;;;;;;;;;;;;;;;;;7367440;19;1834;-71
2023/01/13 10:27:05;;;;;;;;;;;;;;;;;;7369396;19;827;-73
2023/01/13 10:29:34;;;;;;;;;;;;;;;;;;7368327;19;823;-72
2023/01/13 10:32:02;;;;;;;;;;;;;;;;;;7367303;19;1340;-72
2023/01/13 10:34:30;;;;;;;;;;;;;;;;;;7368300;19;803;-71
2023/01/13 10:37:08;;;;;;;;;;;;;;;;;;7368583;19;807;-73
2023/01/13 10:39:36;;;;;;;;;;;;;;;;;;7368011;19;690;-72
2023/01/13 10:42:04;;;;;;;;;;;;;;;;;;7371480;19;1857;-73
2023/01/13 10:44:32;;;;;;;;;;;;;;;;;;7366441;19;1829;-73
2023/01/13 10:47:00;;;;;;;;;;;;;;;;;;7367076;19;717;-74
2023/01/13 10:49:29;;;;;;;;;;;;;;;;;;7369178;19;921;-74
2023/01/13 10:51:58;;;;;;;;;;;;;;;;;;7368187;19;1330;-73
2023/01/13 10:54:26;;;;;;;;;;;;;;;;;;7367474;19;843;-73
2023/01/13 10:56:54;;;;;;;;;;;;;;;;;;7368031;19;811;-72
2023/01/13 10:59:23;;;;;;;;;;;;;;;;;;7367417;19;811;-71
2023/01/13 11:01:53;;;;;;;;;;;;;;;;;;7368079;19;819;-71
2023/01/13 11:04:21;;;;;;;;;;;;;;;;;;7366428;19;1838;-73
2023/01/13 11:06:49;;;;;;;;;;;;;;;;;;7368171;19;839;-71
2023/01/13 11:09:18;;;;;;;;;;;;;;;;;;7368297;19;2166;-72
2023/01/13 11:11:46;;;;;;;;;;;;;;;;;;7364928;19;976;-73
2023/01/13 11:16:55;;;;;;;;;;;;;;;;;;7366712;19;839;-71
2023/01/13 11:19:23;;;;;;;;;;;;;;;;;;7371728;19;870;-72
2023/01/13 11:21:51;;;;;;;;;;;;;;;;;;7368350;19;832;-73
2023/01/13 11:24:19;;;;;;;;;;;;;;;;;;7363136;19;1849;-70
2023/01/13 11:26:47;;;;;;;;;;;;;;;;;;7367194;19;848;-74
2023/01/13 11:29:16;;;;;;;;;;;;;;;;;;7366477;19;739;-74
2023/01/13 11:31:44;;;;;;;;;;;;;;;;;;7367566;19;870;-74
2023/01/13 11:34:12;;;;;;;;;;;;;;;;;;7364360;19;1303;-75
2023/01/13 11:36:40;;;;;;;;;;;;;;;;;;7367833;19;854;-75
2023/01/13 11:39:08;;;;;;;;;;;;;;;;;;7367577;19;796;-75
2023/01/13 11:41:36;;;;;;;;;;;;;;;;;;7370707;19;1500;-74
2023/01/13 11:44:05;;;;;;;;;;;;;;;;;;7366892;19;1826;-77
2023/01/13 11:46:33;;;;;;;;;;;;;;;;;;7375958;19;842;-77
2023/01/13 11:49:01;;;;;;;;;;;;;;;;;;7374922;19;867;-76
2023/01/13 11:51:29;;;;;;;;;;;;;;;;;;7374708;19;888;-76
2023/01/13 11:53:58;;;;;;;;;;;;;;;;;;7371149;19;1297;-76
2023/01/13 11:56:27;;;;;;;;;;;;;;;;;;7374437;19;807;-77
2023/01/13 11:58:55;;;;;;;;;;;;;;;;;;7375908;19;810;-75
2023/01/13 12:01:23;;;;;;;;;;;;;;;;;;7377309;19;1649;-77
2023/01/13 12:03:51;;;;;;;;;;;;;;;;;;7373855;19;1860;-76
2023/01/13 12:06:19;;;;;;;;;;;;;;;;;;7379133;19;792;-76
2023/01/13 12:08:47;;;;;;;;;;;;;;;;;;7377954;19;1613;-76
2023/01/13 12:11:16;;;;;;;;;;;;;;;;;;7375918;19;846;-76
2023/01/13 12:13:44;;;;;;;;;;;;;;;;;;7372183;19;1338;-73
2023/01/13 12:16:12;;;;;;;;;;;;;;;;;;7375106;19;815;-76
2023/01/13 12:18:40;;;;;;;;;;;;;;;;;;7374699;19;835;-76
2023/01/13 12:21:09;;;;;;;;;;;;;;;;;;7372204;19;850;-74
2023/01/13 12:23:37;;;;;;;;;;;;;;;;;;7370094;19;1842;-72
2023/01/13 12:26:05;;;;;;;;;;;;;;;;;;7372678;19;737;-73
2023/01/13 12:28:33;;;;;;;;;;;;;;;;;;7370973;19;783;-73
2023/01/13 12:31:01;;;;;;;;;;;;;;;;;;7372241;19;816;-72
2023/01/13 12:33:29;;;;;;;;;;;;;;;;;;7369358;19;1426;-71
2023/01/13 12:35:58;;;;;;;;;;;;;;;;;;7372029;19;1860;-71
2023/01/13 12:38:26;;;;;;;;;;;;;;;;;;7369957;19;851;-72
2023/01/13 12:40:54;;;;;;;;;;;;;;;;;;7369996;19;808;-74
2023/01/13 12:46:03;;;;;;;;;;;;;;;;;;7372620;19;788;-71
2023/01/13 12:48:31;;;;;;;;;;;;;;;;;;7370484;19;800;-75
2023/01/13 12:50:59;;;;;;;;;;;;;;;;;;7370107;19;803;-72
2023/01/13 12:53:27;;;;;;;;;;;;;;;;;;7370129;19;1310;-73
2023/01/13 12:55:55;;;;;;;;;;;;;;;;;;7369521;19;850;-74
2023/01/13 12:58:24;;;;;;;;;;;;;;;;;;7371936;19;804;-73
2023/01/13 13:00:52;;;;;;;;;;;;;;;;;;7371526;19;891;-75
2023/01/13 13:03:20;;;;;;;;;;;;;;;;;;7368422;19;1354;-75
2023/01/13 13:05:48;;;;;;;;;;;;;;;;;;7368186;19;1847;-72
2023/01/13 13:08:16;;;;;;;;;;;;;;;;;;7372848;19;1035;-76
2023/01/13 13:10:44;;;;;;;;;;;;;;;;;;7373344;19;701;-74
2023/01/13 13:13:19;;;;;;;;;;;;;;;;;;7372036;19;1279;-76
2023/01/13 13:15:47;;;;;;;;;;;;;;;;;;7372385;19;729;-75
2023/01/13 13:18:15;;;;;;;;;;;;;;;;;;7370300;19;776;-76
2023/01/13 13:20:43;;;;;;;;;;;;;;;;;;7370953;19;799;-76
2023/01/13 13:23:12;;;;;;;;;;;;;;;;;;7371742;19;1192;-74
2023/01/13 13:25:40;;;;;;;;;;;;;;;;;;7370609;19;1807;-74
2023/01/13 13:28:08;;;;;;;;;;;;;;;;;;7371576;19;793;-76
2023/01/13 13:30:36;;;;;;;;;;;;;;;;;;7372417;19;846;-75
2023/01/13 13:33:04;;;;;;;;;;;;;;;;;;7370374;19;1541;-75
2023/01/13 13:35:33;;;;;;;;;;;;;;;;;;7375229;19;1351;-76
2023/01/13 13:48:44;;;;;;;;;;;;;;;;;;7369699;19;776;-75
2023/01/13 13:51:12;;;;;;;;;;;;;;;;;;7370965;19;859;-75
2023/01/13 13:53:40;;;;;;;;;;;;;;;;;;7368082;19;1358;-76
2023/01/13 13:56:08;;;;;;;;;;;;;;;;;;7371388;19;1661;-76
2023/01/13 13:58:37;;;;;;;;;;;;;;;;;;7372517;19;1902;-75
2023/01/13 14:01:05;;;;;;;;;;;;;;;;;;7368301;19;844;-73
2023/01/13 14:03:33;;;;;;;;;;;;;;;;;;7368772;19;1558;-73
2023/01/13 14:06:01;;;;;;;;;;;;;;;;;;7367293;19;1845;-72
2023/01/13 14:08:29;;;;;;;;;;;;;;;;;;7366855;19;850;-74
2023/01/13 14:10:57;;;;;;;;;;;;;;;;;;7368809;19;933;-73
2023/01/13 14:13:26;;;;;;;;;;;;;;;;;;7367896;19;1278;-73
2023/01/13 14:15:54;;;;;;;;;;;;;;;;;;7367502;19;815;-74
2023/01/13 14:18:22;;;;;;;;;;;;;;;;;;7367002;19;842;-74
2023/01/13 14:20:50;;;;;;;;;;;;;;;;;;7368724;19;834;-75
2023/01/13 14:23:18;;;;;;;;;;;;;;;;;;7368609;19;1342;-73
2023/01/13 14:25:46;;;;;;;;;;;;;;;;;;7368161;19;1846;-74
2023/01/13 14:28:14;;;;;;;;;;;;;;;;;;7369110;19;756;-72
2023/01/13 14:30:43;;;;;;;;;;;;;;;;;;7367000;19;2208;-73
2023/01/13 14:33:11;;;;;;;;;;;;;;;;;;7371248;19;1692;-73
2023/01/13 14:35:39;;;;;;;;;;;;;;;;;;7369174;19;776;-72
2023/01/13 14:38:07;;;;;;;;;;;;;;;;;;7369234;19;819;-72
2023/01/13 14:40:38;;;;;;;;;;;;;;;;;;7368175;19;796;-74
2023/01/13 14:43:06;;;;;;;;;;;;;;;;;;7367227;19;1349;-72
2023/01/13 14:45:34;;;;;;;;;;;;;;;;;;7366477;19;1802;-71
2023/01/13 14:48:02;;;;;;;;;;;;;;;;;;7367964;19;841;-74
2023/01/13 14:50:32;;;;;;;;;;;;;;;;;;7366900;19;870;-72
2023/01/13 14:53:00;;;;;;;;;;;;;;;;;;7367075;19;1326;-74
2023/01/13 14:55:29;;;;;;;;;;;;;;;;;;7367970;19;877;-73
2023/01/13 14:57:57;;;;;;;;;;;;;;;;;;7368398;19;802;-73
2023/01/13 15:00:25;;;;;;;;;;;;;;;;;;7369984;19;1612;-72
2023/01/13 15:02:53;;;;;;;;;;;;;;;;;;7367483;19;1294;-74
2023/01/13 15:05:21;;;;;;;;;;;;;;;;;;7366085;19;1837;-71
2023/01/13 15:07:50;;;;;;;;;;;;;;;;;;7368372;19;803;-73
2023/01/13 15:10:18;;;;;;;;;;;;;;;;;;7368436;19;765;-73
2023/01/13 15:12:46;;;;;;;;;;;;;;;;;;7364542;19;1287;-72
2023/01/13 15:15:14;;;;;;;;;;;;;;;;;;7367192;19;866;-73
2023/01/13 15:17:44;;;;;;;;;;;;;;;;;;7368120;19;874;-72
2023/01/13 15:20:12;;;;;;;;;;;;;;;;;;7374464;19;831;-73
2023/01/13 15:22:41;;;;;;;;;;;;;;;;;;7373603;19;1330;-73
2023/01/13 15:25:09;;;;;;;;;;;;;;;;;;7373856;19;1841;-72
2023/01/13 15:27:37;;;;;;;;;;;;;;;;;;7376070;19;1625;-74
2023/01/13 15:30:05;;;;;;;;;;;;;;;;;;7375360;19;1624;-74
2023/01/13 15:32:33;;;;;;;;;;;;;;;;;;7371998;19;1350;-75
2023/01/13 15:35:01;;;;;;;;;;;;;;;;;;7373996;19;1931;-73
2023/01/13 15:37:30;;;;;;;;;;;;;;;;;;7377006;19;1627;-73
2023/01/13 15:39:58;;;;;;;;;;;;;;;;;;7373771;19;817;-72
2023/01/13 15:47:47;;;;;;;;;;;;;;;;;;7374214;19;890;-72
2023/01/13 15:50:15;;;;;;;;;;;;;;;;;;7374598;19;805;-74
2023/01/13 15:52:43;;;;;;;;;;;;;;;;;;7374602;19;1342;-72
2023/01/13 15:55:12;;;;;;;;;;;;;;;;;;7375797;19;813;-73
2023/01/13 15:57:40;;;;;;;;;;;;;;;;;;7374722;19;817;-73
2023/01/13 16:00:08;;;;;;;;;;;;;;;;;;7376242;19;819;-71
2023/01/13 16:02:36;;;;;;;;;;;;;;;;;;7377519;19;1484;-75
2023/01/13 16:05:05;;;;;;;;;;;;;;;;;;7374333;19;2215;-75
2023/01/13 16:07:33;;;;;;;;;;;;;;;;;;7373783;19;852;-71
2023/01/13 16:10:03;;;;;;;;;;;;;;;;;;7374698;19;768;-72
2023/01/13 16:12:31;;;;;;;;;;;;;;;;;;7383590;19;1385;-75
2023/01/13 16:15:00;;;;;;;;;;;;;;;;;;7392590;19;816;-73
2023/01/13 16:17:29;;;;;;;;;;;;;;;;;;7393874;19;831;-72
2023/01/13 16:19:57;;;;;;;;;;;;;;;;;;7394488;19;774;-74
2023/01/13 16:22:25;;;;;;;;;;;;;;;;;;7395652;19;1259;-74
2023/01/13 16:24:53;;;;;;;;;;;;;;;;;;7392787;19;1822;-73
2023/01/13 16:27:21;;;;;;;;;;;;;;;;;;7394446;19;854;-73
2023/01/13 16:29:49;;;;;;;;;;;;;;;;;;7394282;19;788;-74
2023/01/13 16:32:18;;;;;;;;;;;;;;;;;;7395394;19;1876;-73
2023/01/13 16:34:46;;;;;;;;;;;;;;;;;;7388612;19;725;-72
2023/01/13 16:37:14;;;;;;;;;;;;;;;;;;7388537;19;809;-75
2023/01/13 16:39:43;;;;;;;;;;;;;;;;;;7391085;19;834;-72
2023/01/13 16:42:11;;;;;;;;;;;;;;;;;;7392139;19;1394;-73
2023/01/13 16:44:39;;;;;;;;;;;;;;;;;;7389432;19;784;-74
2023/01/13 16:47:07;;;;;;;;;;;;;;;;;;7377492;19;1845;-72
2023/01/13 16:49:35;;;;;;;;;;;;;;;;;;7376203;19;791;-73
2023/01/13 16:52:04;;;;;;;;;;;;;;;;;;7376951;19;1290;-74
2023/01/13 16:54:32;;;;;;;;;;;;;;;;;;7377390;19;791;-73
2023/01/13 16:57:00;;;;;;;;;;;;;;;;;;7377512;19;873;-72
2023/01/13 16:59:28;;;;;;;;;;;;;;;;;;7379051;19;1740;-74
2023/01/13 17:01:56;;;;;;;;;;;;;;;;;;7377227;19;824;-72
2023/01/13 17:04:24;;;;;;;;;;;;;;;;;;7377110;19;674;-74
2023/01/13 17:06:53;;;;;;;;;;;;;;;;;;7374620;19;1819;-72
2023/01/13 17:09:21;;;;;;;;;;;;;;;;;;7372584;19;810;-72
2023/01/13 17:11:49;;;;;;;;;;;;;;;;;;7372263;19;1114;-72
2023/01/13 17:14:18;;;;;;;;;;;;;;;;;;7369611;19;1251;-71
2023/01/13 17:16:46;;;;;;;;;;;;;;;;;;7373777;19;760;-71
2023/01/13 17:19:15;;;;;;;;;;;;;;;;;;7372345;19;843;-72
2023/01/13 17:21:45;;;;;;;;;;;;;;;;;;7371603;19;822;-71
2023/01/13 17:24:13;;;;;;;;;;;;;;;;;;7368117;19;1353;-70
2023/01/13 17:26:42;;;;;;;;;;;;;;;;;;7372301;19;1872;-72
2023/01/13 17:29:11;;;;;;;;;;;;;;;;;;7371281;19;877;-73
2023/01/13 17:31:39;;;;;;;;;;;;;;;;;;7371240;19;875;-70
2023/01/13 17:34:07;;;;;;;;;;;;;;;;;;7370177;19;1958;-71
2023/01/13 17:36:35;;;;;;;;;;;;;;;;;;7371048;19;807;-72
2023/01/13 17:39:03;;;;;;;;;;;;;;;;;;7370598;19;809;-73
2023/01/13 17:41:32;;;;;;;;;;;;;;;;;;7368613;19;728;-72
2023/01/13 17:44:00;;;;;;;;;;;;;;;;;;7365806;19;1306;-68
2023/01/13 17:46:28;;;;;;;;;;;;;;;;;;7367179;19;1841;-70
2023/01/13 17:48:56;;;;;;;;;;;;;;;;;;7367674;19;842;-70
2023/01/13 17:51:24;;;;;;;;;;;;;;;;;;7367938;19;745;-70
2023/01/13 17:53:53;;;;;;;;;;;;;;;;;;7368555;19;1860;-69
2023/01/13 17:56:21;;;;;;;;;;;;;;;;;;7369263;19;2132;-70
2023/01/13 17:58:49;;;;;;;;;;;;;;;;;;7367599;19;818;-70
2023/01/13 18:01:17;;;;;;;;;;;;;;;;;;7367826;19;788;-72
2023/01/13 18:03:45;;;;;;;;;;;;;;;;;;7364000;19;1298;-72
2023/01/13 18:06:13;;;;;;;;;;;;;;;;;;7366140;19;1843;-72
2023/01/13 18:08:41;;;;;;;;;;;;;;;;;;7367531;19;818;-71
2023/01/13 18:11:10;;;;;;;;;;;;;;;;;;7368123;19;831;-69
2023/01/13 18:13:39;;;;;;;;;;;;;;;;;;7365715;19;1310;-70
2023/01/13 18:16:09;;;;;;;;;;;;;;;;;;7367204;19;883;-70
2023/01/13 18:18:37;;;;;;;;;;;;;;;;;;7368710;19;1024;-69
2023/01/13 18:29:19;;;;;;;;;;;;;;;;;;7367120;19;1442;-72
2023/01/13 18:31:47;;;;;;;;;;;;;;;;;;7367260;19;783;-73
2023/01/13 18:34:15;;;;;;;;;;;;;;;;;;7368812;19;1577;-72